Time;durP1;ratioP1;P1;durP2;ratioP2;P2;SDS_P1;SDS_P2;PMS_P1;PMS_P2;Temp;Humidity;BMP_temperature;BMP_pressure;BME280_temperature;BME280_humidity;BME280_pressure;Samples;Min_cycle;Max_cycle;Signal;HPM_P1;HPM_P2
2021/12/07 00:01:20;;;;;;;19.60;18.17;;;2.90;99.90;;;;;;5048405;28;20443;-72
2021/12/07 00:03:47;;;;;;;20.27;18.67;;;2.90;99.90;;;;;;5050427;28;20951;-73
2021/12/07 00:06:14;;;;;;;17.73;16.53;;;2.90;99.90;;;;;;5050162;28;20797;-73
2021/12/07 00:08:41;;;;;;;18.60;17.10;;;2.90;99.90;;;;;;5049815;28;20489;-73
2021/12/07 00:11:09;;;;;;;17.53;16.27;;;3.00;99.90;;;;;;5049957;28;20498;-73
2021/12/07 00:13:39;;;;;;;18.30;17.10;;;3.00;99.90;;;;;;5050022;28;20827;-73
2021/12/07 00:16:09;;;;;;;18.70;17.30;;;3.00;99.90;;;;;;5049826;28;21092;-71
2021/12/07 00:18:36;;;;;;;20.53;18.83;;;3.10;99.90;;;;;;5049810;28;20470;-73
2021/12/07 00:21:05;;;;;;;17.97;16.63;;;3.10;99.90;;;;;;5049590;28;20498;-73
2021/12/07 00:23:33;;;;;;;19.13;17.73;;;3.20;99.90;;;;;;5049816;28;20482;-72
2021/12/07 00:25:59;;;;;;;17.10;15.80;;;3.20;99.90;;;;;;5049943;28;20455;-73
2021/12/07 00:28:27;;;;;;;17.50;16.30;;;3.30;99.90;;;;;;5049755;28;20452;-74
2021/12/07 00:30:57;;;;;;;18.50;16.90;;;3.30;99.90;;;;;;5049799;28;20448;-73
2021/12/07 00:33:37;;;;;;;17.30;15.93;;;3.40;99.90;;;;;;5049585;28;20444;-72
2021/12/07 00:36:04;;;;;;;17.87;16.63;;;3.40;99.90;;;;;;5049714;28;20452;-74
2021/12/07 00:38:31;;;;;;;16.70;15.53;;;3.40;99.90;;;;;;5049980;28;20458;-72
2021/12/07 00:41:01;;;;;;;17.00;15.77;;;3.50;99.90;;;;;;5052392;28;20476;-73
2021/12/07 00:43:29;;;;;;;17.80;16.57;;;3.50;99.90;;;;;;5053797;28;20453;-72
2021/12/07 00:45:58;;;;;;;16.20;15.00;;;3.50;99.90;;;;;;5053320;28;20487;-72
2021/12/07 00:48:25;;;;;;;16.23;15.00;;;3.50;99.90;;;;;;5053581;28;20460;-72
2021/12/07 00:50:54;;;;;;;15.90;14.90;;;3.50;99.90;;;;;;5053655;28;20444;-73
2021/12/07 00:53:21;;;;;;;16.97;15.80;;;3.60;99.90;;;;;;5053298;28;20466;-72
2021/12/07 00:55:51;;;;;;;18.03;15.20;;;3.60;99.90;;;;;;5053438;28;20893;-74
2021/12/07 00:58:22;;;;;;;15.93;14.83;;;3.70;99.90;;;;;;5053570;28;20856;-72
2021/12/07 01:00:51;;;;;;;15.60;14.60;;;3.70;99.90;;;;;;5053096;28;20483;-73
2021/12/07 01:03:20;;;;;;;16.70;15.80;;;3.70;99.90;;;;;;5053397;28;20451;-73
2021/12/07 01:05:50;;;;;;;17.13;16.03;;;3.60;99.90;;;;;;5053422;28;20489;-73
2021/12/07 01:08:35;;;;;;;18.97;17.77;;;3.50;99.90;;;;;;5053348;28;20452;-73
2021/12/07 01:24:45;;;;;;;18.93;17.80;;;3.10;99.90;;;;;;5052904;28;20435;-74
2021/12/07 01:27:14;;;;;;;17.40;16.50;;;3.10;99.90;;;;;;5052758;28;20940;-73
2021/12/07 01:29:43;;;;;;;16.30;15.60;;;3.10;99.90;;;;;;5052898;28;20994;-73
2021/12/07 01:32:21;;;;;;;16.83;15.80;;;3.20;99.90;;;;;;5052667;28;20933;-73
2021/12/07 01:35:24;;;;;;;17.27;16.30;;;3.20;99.90;;;;;;5052640;28;20466;-73
2021/12/07 01:38:08;;;;;;;18.27;17.27;;;3.20;99.90;;;;;;5060577;28;20507;-73
2021/12/07 01:40:46;;;;;;;16.90;15.90;;;3.20;99.90;;;;;;5072351;28;20470;-73
2021/12/07 01:43:37;;;;;;;16.13;15.10;;;3.20;99.90;;;;;;5073380;28;20493;-72
2021/12/07 02:00:01;;;;;;;14.93;14.13;;;3.30;99.90;;;;;;5052031;28;20513;-72
2021/12/07 02:02:30;;;;;;;15.10;14.30;;;3.40;99.90;;;;;;5052294;28;20466;-73
2021/12/07 02:04:57;;;;;;;14.10;13.40;;;3.50;99.90;;;;;;5052319;28;20942;-73
2021/12/07 02:07:26;;;;;;;18.37;17.27;;;3.50;99.90;;;;;;5052177;28;20459;-73
2021/12/07 02:09:57;;;;;;;23.50;22.47;;;3.50;99.90;;;;;;5051775;28;20454;-74
2021/12/07 02:12:25;;;;;;;26.13;24.83;;;3.50;99.90;;;;;;5051786;28;20455;-73
2021/12/07 02:14:52;;;;;;;27.90;26.43;;;3.50;99.90;;;;;;5052135;28;20447;-72
2021/12/07 02:17:23;;;;;;;29.07;27.67;;;3.40;99.90;;;;;;5051738;28;20951;-72
2021/12/07 02:19:50;;;;;;;28.83;27.40;;;3.40;99.90;;;;;;5051695;28;20935;-72
2021/12/07 02:22:18;;;;;;;28.93;27.43;;;3.30;99.90;;;;;;5051714;28;20962;-72
2021/12/07 02:24:45;;;;;;;29.60;28.00;;;3.30;99.90;;;;;;5051833;28;20465;-72
2021/12/07 02:27:12;;;;;;;29.30;27.80;;;3.30;99.90;;;;;;5051698;28;20452;-70
2021/12/07 02:29:39;;;;;;;28.30;26.87;;;3.40;99.90;;;;;;5051555;28;20569;-73
2021/12/07 02:32:06;;;;;;;28.00;26.50;;;3.40;99.90;;;;;;5051583;28;20452;-70
2021/12/07 02:34:35;;;;;;;30.03;28.50;;;3.40;99.90;;;;;;5051749;28;20814;-72
2021/12/07 02:37:02;;;;;;;28.83;27.33;;;3.50;99.90;;;;;;5051572;28;20448;-72
2021/12/07 02:39:33;;;;;;;28.20;26.70;;;3.50;99.90;;;;;;5051472;28;20452;-72
2021/12/07 02:42:02;;;;;;;28.17;26.80;;;3.50;99.90;;;;;;5051293;28;20455;-72
2021/12/07 02:44:28;;;;;;;29.60;28.10;;;3.50;99.90;;;;;;5051303;28;20526;-72
2021/12/07 02:46:55;;;;;;;30.00;28.50;;;3.60;99.90;;;;;;5051035;28;20843;-70
2021/12/07 02:49:22;;;;;;;30.67;29.17;;;3.60;99.90;;;;;;5051279;28;20448;-72
2021/12/07 02:51:49;;;;;;;29.60;28.10;;;3.70;99.90;;;;;;5050948;28;20454;-73
2021/12/07 02:54:17;;;;;;;29.17;27.60;;;3.70;99.90;;;;;;5051216;28;20454;-72
2021/12/07 02:56:45;;;;;;;29.00;27.50;;;3.70;99.90;;;;;;5051615;28;20460;-72
2021/12/07 02:59:12;;;;;;;29.00;27.60;;;3.80;99.90;;;;;;5050921;28;20462;-73
2021/12/07 03:01:46;;;;;;;28.43;27.03;;;3.80;99.90;;;;;;5050927;28;20480;-73
2021/12/07 03:04:20;;;;;;;30.37;28.77;;;3.90;99.90;;;;;;5050517;28;20540;-72
2021/12/07 03:06:58;;;;;;;29.53;27.97;;;3.90;99.90;;;;;;5051447;28;20463;-72
2021/12/07 03:26:09;;;;;;;29.63;28.13;;;4.10;99.90;;;;;;5049745;28;20474;-73
2021/12/07 03:28:39;;;;;;;29.27;27.77;;;4.00;99.90;;;;;;5049007;28;20460;-71
2021/12/07 03:31:07;;;;;;;27.30;26.00;;;4.00;99.90;;;;;;5049531;28;20440;-73
2021/12/07 03:33:34;;;;;;;28.93;27.43;;;4.00;99.90;;;;;;5049252;28;20901;-72
2021/12/07 03:36:01;;;;;;;29.27;27.77;;;3.80;99.90;;;;;;5049325;28;20792;-72
2021/12/07 03:38:28;;;;;;;28.30;26.90;;;3.80;99.90;;;;;;5049440;28;20440;-72
2021/12/07 03:40:55;;;;;;;29.50;28.00;;;3.80;99.90;;;;;;5048929;28;20490;-72
2021/12/07 03:43:22;;;;;;;29.10;27.70;;;3.80;99.90;;;;;;5046570;28;20659;-72
2021/12/07 03:45:50;;;;;;;28.70;27.37;;;3.80;99.90;;;;;;5048815;28;20477;-72
2021/12/07 03:48:17;;;;;;;28.87;27.47;;;3.70;99.90;;;;;;5048936;28;20447;-72
2021/12/07 03:50:45;;;;;;;28.37;27.07;;;3.70;99.90;;;;;;5049914;28;20472;-72
2021/12/07 03:53:13;;;;;;;28.00;26.70;;;3.60;99.90;;;;;;5049870;28;20781;-71
2021/12/07 03:55:40;;;;;;;29.00;27.60;;;3.60;99.90;;;;;;5049867;28;20471;-72
2021/12/07 03:58:07;;;;;;;28.90;27.60;;;3.60;99.90;;;;;;5049396;28;20450;-72
2021/12/07 04:00:37;;;;;;;27.87;26.50;;;3.60;99.90;;;;;;5049545;28;20824;-72
2021/12/07 04:03:08;;;;;;;27.67;26.27;;;3.60;99.90;;;;;;5049830;28;20452;-72
2021/12/07 04:05:36;;;;;;;27.43;26.20;;;3.60;99.90;;;;;;5047280;28;20924;-72
2021/12/07 04:08:04;;;;;;;27.57;26.37;;;3.70;99.90;;;;;;5049829;28;20513;-72
2021/12/07 04:10:31;;;;;;;28.70;27.30;;;3.70;99.90;;;;;;5049456;28;20519;-72
2021/12/07 04:12:58;;;;;;;29.30;27.80;;;3.70;99.90;;;;;;5049886;28;20849;-72
2021/12/07 04:15:25;;;;;;;27.77;26.40;;;3.80;99.90;;;;;;5051211;28;20448;-72
2021/12/07 04:17:51;;;;;;;28.40;27.10;;;3.80;99.90;;;;;;5050774;28;20474;-72
2021/12/07 04:20:20;;;;;;;28.70;27.20;;;3.80;99.90;;;;;;5053604;28;20547;-72
2021/12/07 04:22:48;;;;;;;29.63;27.93;;;3.90;99.90;;;;;;5053553;28;20475;-72
2021/12/07 04:25:16;;;;;;;29.37;27.97;;;3.90;99.90;;;;;;5053655;28;20945;-72
2021/12/07 04:27:43;;;;;;;30.40;28.80;;;3.90;99.90;;;;;;5053688;28;20452;-72
2021/12/07 04:30:14;;;;;;;29.80;28.30;;;3.90;99.90;;;;;;5053630;28;20456;-71
2021/12/07 04:32:40;;;;;;;28.30;27.00;;;3.90;99.90;;;;;;5053514;28;20502;-71
2021/12/07 04:35:10;;;;;;;30.40;28.50;;;3.90;99.90;;;;;;5053063;28;20448;-71
2021/12/07 04:37:39;;;;;;;28.67;27.27;;;3.90;99.90;;;;;;5053293;28;20942;-72
2021/12/07 04:40:08;;;;;;;30.07;28.57;;;4.00;99.90;;;;;;5053198;28;20452;-72
2021/12/07 04:42:35;;;;;;;30.33;28.83;;;4.00;99.90;;;;;;5050594;28;20444;-72
2021/12/07 04:45:05;;;;;;;30.23;28.83;;;4.10;99.90;;;;;;5053131;28;20444;-72
2021/12/07 04:47:40;;;;;;;30.00;28.40;;;4.10;99.90;;;;;;5053319;28;20453;-72
2021/12/07 04:50:29;;;;;;;29.50;28.00;;;4.00;99.90;;;;;;5053050;28;20447;-71
2021/12/07 04:58:25;;;;;;;32.10;30.10;;;4.00;99.90;;;;;;5012314;28;20440;-71
2021/12/07 05:00:52;;;;;;;32.97;31.13;;;4.10;99.90;;;;;;5032883;28;20515;-71
2021/12/07 05:03:19;;;;;;;31.50;29.90;;;4.00;99.90;;;;;;5033508;28;20459;-71
2021/12/07 05:05:49;;;;;;;32.30;30.40;;;4.00;99.90;;;;;;5033359;28;20955;-72
2021/12/07 05:08:30;;;;;;;32.00;30.30;;;4.10;99.90;;;;;;5033392;28;20487;-72
2021/12/07 05:11:26;;;;;;;34.53;32.43;;;4.10;99.90;;;;;;5033542;28;20532;-70
2021/12/07 05:13:59;;;;;;;33.00;31.00;;;4.10;99.90;;;;;;5032875;28;20449;-72
2021/12/07 05:16:39;;;;;;;32.37;30.63;;;4.10;99.90;;;;;;5033086;28;20498;-70
2021/12/07 05:23:52;;;;;;;32.60;30.90;;;4.10;99.90;;;;;;5033039;28;20559;-72
2021/12/07 05:24:52;;;;;;;32.13;30.13;;;3.80;99.90;;;;;;5032694;28;20942;-71
2021/12/07 05:38:18;;;;;;;31.50;29.90;;;3.70;99.90;;;;;;5032627;28;20427;-71
2021/12/07 05:40:47;;;;;;;30.60;29.10;;;3.70;99.90;;;;;;5032777;28;20484;-70
2021/12/07 05:43:13;;;;;;;30.03;28.53;;;3.70;99.90;;;;;;5032755;28;20459;-71
2021/12/07 05:45:40;;;;;;;29.90;28.40;;;3.60;99.90;;;;;;5032499;28;20483;-71
2021/12/07 05:48:08;;;;;;;29.30;27.70;;;3.60;99.90;;;;;;5032539;28;20448;-70
2021/12/07 05:50:38;;;;;;;30.63;29.13;;;3.60;99.90;;;;;;5032391;28;20798;-70
2021/12/07 05:53:06;;;;;;;29.40;27.67;;;3.60;99.90;;;;;;5032549;28;20511;-70
2021/12/07 05:55:33;;;;;;;30.50;28.90;;;3.60;99.90;;;;;;5032634;28;20454;-70
2021/12/07 05:58:02;;;;;;;29.40;27.90;;;3.70;99.90;;;;;;5032619;28;20457;-70
2021/12/07 06:00:31;;;;;;;30.10;28.10;;;3.80;99.90;;;;;;5032505;28;20449;-70
2021/12/07 06:03:00;;;;;;;28.07;26.57;;;3.80;99.90;;;;;;5032217;28;20448;-71
2021/12/07 06:05:28;;;;;;;28.77;27.20;;;3.90;99.90;;;;;;5032631;28;20449;-71
2021/12/07 06:07:54;;;;;;;29.17;27.67;;;4.00;99.90;;;;;;5032206;28;20464;-71
2021/12/07 06:10:22;;;;;;;28.00;26.70;;;4.00;99.90;;;;;;5036345;28;20452;-70
2021/12/07 06:12:48;;;;;;;27.23;25.90;;;4.00;99.90;;;;;;5048581;28;20449;-72
2021/12/07 06:15:21;;;;;;;29.27;27.87;;;4.10;99.90;;;;;;5049994;28;20815;-72
2021/12/07 06:17:49;;;;;;;29.97;28.20;;;4.20;99.90;;;;;;5044851;28;20454;-70
2021/12/07 06:20:17;;;;;;;28.40;27.00;;;4.20;99.90;;;;;;5040136;28;20461;-70
2021/12/07 06:22:43;;;;;;;29.50;27.87;;;4.20;99.90;;;;;;5038071;28;20491;-71
2021/12/07 06:25:11;;;;;;;28.80;27.13;;;4.20;99.90;;;;;;5031753;28;20442;-71
2021/12/07 06:27:39;;;;;;;27.63;26.30;;;4.20;99.90;;;;;;5031788;28;20444;-71
2021/12/07 06:30:06;;;;;;;28.70;26.90;;;4.30;99.90;;;;;;5031972;28;20463;-71
2021/12/07 06:32:34;;;;;;;29.67;26.57;;;4.30;99.90;;;;;;5032025;28;20461;-71
2021/12/07 06:35:01;;;;;;;25.60;24.20;;;4.30;99.90;;;;;;5031774;28;20827;-71
2021/12/07 06:37:28;;;;;;;25.00;23.70;;;4.30;99.90;;;;;;5031559;28;20455;-72
2021/12/07 06:39:55;;;;;;;23.50;21.93;;;4.30;99.90;;;;;;5031567;28;20452;-72
2021/12/07 06:42:21;;;;;;;22.43;21.20;;;4.40;99.90;;;;;;5031449;28;20739;-72
2021/12/07 06:44:48;;;;;;;22.97;21.83;;;4.30;99.90;;;;;;5031334;28;20460;-72
2021/12/07 06:47:15;;;;;;;22.87;21.47;;;4.30;99.90;;;;;;5031440;28;20503;-72
2021/12/07 06:49:43;;;;;;;25.60;24.00;;;4.40;99.90;;;;;;5031600;28;20467;-72
2021/12/07 06:52:10;;;;;;;23.53;22.23;;;4.40;99.90;;;;;;5031130;28;20908;-73
2021/12/07 06:54:37;;;;;;;22.67;21.57;;;4.30;99.90;;;;;;5031286;28;20822;-75
2021/12/07 06:57:05;;;;;;;24.07;22.80;;;4.30;99.90;;;;;;5041270;28;20451;-70
2021/12/07 06:59:32;;;;;;;27.03;24.70;;;4.30;99.90;;;;;;5050522;28;20465;-69
2021/12/07 07:01:58;;;;;;;26.73;24.30;;;4.30;99.90;;;;;;5050471;28;20475;-70
2021/12/07 07:04:25;;;;;;;24.20;22.73;;;4.30;99.90;;;;;;5050872;28;20473;-69
2021/12/07 07:06:53;;;;;;;26.40;24.43;;;4.30;99.90;;;;;;5050546;28;20448;-70
2021/12/07 07:09:20;;;;;;;25.17;23.43;;;4.30;99.90;;;;;;5050455;28;20440;-69
2021/12/07 07:11:46;;;;;;;24.50;23.00;;;4.30;99.90;;;;;;5050282;28;20515;-70
2021/12/07 07:14:14;;;;;;;32.03;24.77;;;4.30;99.90;;;;;;5050245;28;20443;-71
2021/12/07 07:16:40;;;;;;;27.10;25.80;;;4.40;99.90;;;;;;5050538;28;20455;-71
2021/12/07 07:19:07;;;;;;;31.30;28.10;;;4.30;99.90;;;;;;5050898;28;20458;-72
2021/12/07 07:21:34;;;;;;;29.70;27.90;;;4.30;99.90;;;;;;5050705;28;21038;-72
2021/12/07 07:24:02;;;;;;;32.03;30.10;;;4.30;99.90;;;;;;5050565;28;20478;-72
2021/12/07 07:26:29;;;;;;;34.57;32.53;;;4.30;99.90;;;;;;5050547;28;20787;-71
2021/12/07 07:28:56;;;;;;;32.90;31.10;;;4.40;99.90;;;;;;5050725;28;20452;-71
2021/12/07 07:31:23;;;;;;;32.93;30.97;;;4.40;99.90;;;;;;5050626;28;20869;-70
2021/12/07 07:33:51;;;;;;;33.20;31.47;;;4.40;99.90;;;;;;5050373;28;20451;-70
2021/12/07 07:36:17;;;;;;;32.47;30.70;;;4.30;99.90;;;;;;5050525;28;20455;-70
2021/12/07 07:38:44;;;;;;;32.37;30.53;;;4.30;99.90;;;;;;5050043;28;20471;-70
2021/12/07 07:41:12;;;;;;;30.70;28.47;;;4.30;99.90;;;;;;5050117;28;20522;-70
2021/12/07 07:43:39;;;;;;;32.40;30.60;;;4.30;99.90;;;;;;5050201;28;20452;-70
2021/12/07 07:46:06;;;;;;;32.70;30.80;;;4.20;99.90;;;;;;5050061;28;20986;-71
2021/12/07 07:48:32;;;;;;;31.47;29.77;;;4.30;99.90;;;;;;5050221;28;20459;-71
2021/12/07 07:50:59;;;;;;;32.03;29.63;;;4.30;99.90;;;;;;5049693;28;20458;-70
2021/12/07 07:53:26;;;;;;;32.13;30.20;;;4.20;99.90;;;;;;5050357;28;20440;-70
2021/12/07 07:55:52;;;;;;;31.80;30.17;;;4.20;99.90;;;;;;5050158;28;20770;-70
2021/12/07 07:58:20;;;;;;;30.27;28.60;;;4.20;99.90;;;;;;5050208;28;20463;-70
2021/12/07 08:00:48;;;;;;;31.23;29.53;;;4.20;99.90;;;;;;5050099;28;20467;-70
2021/12/07 08:03:15;;;;;;;35.17;32.97;;;4.30;99.90;;;;;;5050046;28;20855;-70
2021/12/07 08:05:42;;;;;;;33.23;30.70;;;4.40;99.90;;;;;;5049592;28;20449;-70
2021/12/07 08:08:09;;;;;;;31.13;29.37;;;4.30;99.90;;;;;;5049602;28;20480;-71
2021/12/07 08:10:35;;;;;;;30.57;28.90;;;4.30;99.90;;;;;;5049388;28;20452;-70
2021/12/07 08:13:04;;;;;;;30.23;28.10;;;4.30;99.90;;;;;;5049324;28;20438;-69
2021/12/07 08:15:36;;;;;;;29.17;27.47;;;4.40;99.90;;;;;;5049661;28;20457;-69
2021/12/07 08:18:03;;;;;;;31.03;28.80;;;4.40;99.90;;;;;;5050066;28;20539;-68
2021/12/07 08:20:30;;;;;;;31.07;29.37;;;4.30;99.90;;;;;;5049781;28;20451;-69
2021/12/07 08:22:58;;;;;;;31.33;28.97;;;4.30;99.90;;;;;;5049839;28;20874;-69
2021/12/07 08:25:24;;;;;;;30.23;28.13;;;4.30;99.90;;;;;;5049590;28;21052;-69
2021/12/07 08:27:51;;;;;;;29.70;27.80;;;4.30;99.90;;;;;;5049851;28;20460;-69
2021/12/07 08:30:18;;;;;;;27.40;25.87;;;4.30;99.90;;;;;;5049717;28;20953;-69
2021/12/07 08:32:46;;;;;;;28.53;26.93;;;4.30;99.90;;;;;;5050156;28;20457;-69
2021/12/07 08:35:14;;;;;;;25.13;23.93;;;4.40;99.90;;;;;;5049699;28;20440;-72
2021/12/07 08:37:41;;;;;;;24.60;23.10;;;4.40;99.90;;;;;;5049421;28;20460;-71
2021/12/07 08:40:09;;;;;;;24.83;23.33;;;4.50;99.90;;;;;;5049646;28;20451;-70
2021/12/07 08:42:37;;;;;;;23.63;22.43;;;4.40;99.90;;;;;;5049547;28;20876;-70
2021/12/07 08:45:05;;;;;;;25.00;23.50;;;4.50;99.90;;;;;;5049612;28;20908;-71
2021/12/07 08:47:32;;;;;;;23.10;21.43;;;4.60;99.90;;;;;;5049207;28;20501;-71
2021/12/07 08:50:01;;;;;;;23.63;21.30;;;4.80;99.90;;;;;;5049530;28;20448;-71
2021/12/07 08:52:27;;;;;;;23.13;21.30;;;4.90;99.90;;;;;;5049334;28;20464;-71
2021/12/07 09:00:19;;;;;;;19.63;18.53;;;5.20;99.90;;;;;;5016155;28;20431;-73
2021/12/07 09:02:46;;;;;;;17.60;16.50;;;5.50;99.90;;;;;;5053148;28;21058;-73
2021/12/07 09:05:14;;;;;;;15.40;14.40;;;5.70;99.90;;;;;;5053471;28;20972;-72
2021/12/07 09:07:40;;;;;;;15.40;14.50;;;5.90;99.90;;;;;;5053553;28;20815;-73
2021/12/07 09:10:07;;;;;;;14.63;13.73;;;6.00;99.90;;;;;;5053020;28;20453;-73
2021/12/07 09:12:34;;;;;;;13.30;12.70;;;6.20;99.90;;;;;;5053191;28;20482;-72
2021/12/07 09:15:01;;;;;;;12.73;12.10;;;6.30;99.90;;;;;;5053617;28;20448;-72
2021/12/07 09:17:28;;;;;;;13.60;12.80;;;6.40;99.90;;;;;;5053124;28;20957;-72
2021/12/07 09:19:55;;;;;;;13.27;12.57;;;6.40;99.90;;;;;;5053125;28;20455;-71
2021/12/07 09:22:23;;;;;;;11.90;11.40;;;6.60;99.90;;;;;;5053094;28;20498;-71
2021/12/07 09:24:50;;;;;;;12.17;11.40;;;6.60;99.90;;;;;;5052947;28;20924;-70
2021/12/07 09:27:17;;;;;;;12.53;11.53;;;6.60;99.90;;;;;;5052767;28;20466;-70
2021/12/07 09:29:44;;;;;;;13.13;11.93;;;6.70;99.90;;;;;;5052567;28;20458;-71
2021/12/07 09:32:10;;;;;;;12.77;11.87;;;6.70;99.90;;;;;;5052638;28;20508;-70
2021/12/07 09:34:37;;;;;;;12.37;11.57;;;6.80;99.90;;;;;;5052721;28;20474;-71
2021/12/07 09:37:04;;;;;;;12.80;12.00;;;6.80;99.90;;;;;;5052605;28;20960;-70
2021/12/07 09:39:32;;;;;;;12.87;11.73;;;6.90;99.90;;;;;;5052538;28;20946;-70
2021/12/07 09:41:59;;;;;;;12.03;10.90;;;7.00;99.90;;;;;;5052605;28;20480;-70
2021/12/07 09:44:25;;;;;;;12.00;11.40;;;7.20;99.90;;;;;;5052657;28;20455;-70
2021/12/07 09:46:52;;;;;;;10.40;10.00;;;8.00;99.90;;;;;;5052374;28;20671;-70
2021/12/07 09:49:19;;;;;;;12.70;11.80;;;9.20;99.90;;;;;;5052490;28;20788;-70
2021/12/07 09:51:46;;;;;;;12.47;11.70;;;10.00;99.90;;;;;;5052509;28;20455;-70
2021/12/07 09:54:13;;;;;;;11.67;10.97;;;10.50;99.90;;;;;;5052386;28;20455;-71
2021/12/07 09:56:41;;;;;;;11.47;10.87;;;10.80;99.90;;;;;;5052175;28;20513;-70
2021/12/07 09:59:10;;;;;;;12.73;11.60;;;11.50;99.90;;;;;;5052177;28;20467;-70
2021/12/07 10:01:40;;;;;;;11.73;11.03;;;11.80;99.90;;;;;;5051470;28;20511;-70
2021/12/07 10:04:07;;;;;;;11.23;10.70;;;11.50;98.30;;;;;;5052023;28;20437;-70
2021/12/07 10:06:33;;;;;;;11.30;10.70;;;11.00;99.70;;;;;;5052171;28;20437;-70
2021/12/07 10:09:00;;;;;;;11.63;11.00;;;10.10;99.40;;;;;;5051985;28;20459;-71
2021/12/07 10:11:27;;;;;;;12.07;11.13;;;9.80;99.90;;;;;;5051800;28;20444;-71
2021/12/07 10:13:55;;;;;;;11.30;10.70;;;9.50;99.90;;;;;;5051366;28;20444;-71
2021/12/07 10:16:37;;;;;;;11.53;10.87;;;9.10;99.90;;;;;;5052074;28;20444;-71
2021/12/07 10:19:04;;;;;;;11.07;10.57;;;8.70;99.90;;;;;;5047747;28;20767;-71
2021/12/07 10:21:39;;;;;;;10.83;10.20;;;8.40;99.90;;;;;;5051646;28;20451;-71
2021/12/07 10:24:09;;;;;;;11.53;10.83;;;8.10;99.90;;;;;;5051712;28;20495;-70
2021/12/07 10:26:39;;;;;;;13.10;12.17;;;7.80;99.90;;;;;;5051558;28;20521;-70
2021/12/07 10:29:11;;;;;;;578.37;124.93;;;7.70;99.90;;;;;;5051499;28;20475;-69
2021/12/07 10:31:40;;;;;;;11.60;10.80;;;7.70;99.90;;;;;;5051569;28;20452;-70
2021/12/07 10:34:11;;;;;;;10.67;10.17;;;8.20;99.90;;;;;;5051326;28;20779;-71
2021/12/07 10:36:43;;;;;;;10.13;9.67;;;9.90;99.90;;;;;;5051408;28;20672;-71
2021/12/07 10:39:12;;;;;;;11.57;10.87;;;11.30;97.80;;;;;;5051317;28;20467;-69
2021/12/07 10:41:41;;;;;;;12.27;11.47;;;12.10;96.30;;;;;;5051380;28;20824;-69
2021/12/07 10:44:12;;;;;;;12.13;11.23;;;12.10;95.20;;;;;;5051410;28;20851;-68
2021/12/07 10:46:44;;;;;;;12.43;11.43;;;12.00;94.90;;;;;;5051121;28;20484;-69
2021/12/07 10:49:19;;;;;;;12.37;11.50;;;11.60;96.10;;;;;;5051578;28;20448;-70
2021/12/07 10:52:14;;;;;;;12.47;11.43;;;11.30;95.80;;;;;;5051448;28;20454;-70
2021/12/07 10:54:46;;;;;;;12.33;11.63;;;10.50;96.60;;;;;;5051292;28;20507;-69
2021/12/07 10:57:15;;;;;;;11.77;11.00;;;9.80;98.60;;;;;;5051569;28;20459;-69
2021/12/07 10:59:53;;;;;;;11.83;11.20;;;10.30;97.30;;;;;;5061838;28;20451;-69
2021/12/07 11:02:20;;;;;;;11.80;11.23;;;11.90;95.30;;;;;;5072232;28;20483;-71
2021/12/07 11:04:49;;;;;;;12.30;11.60;;;13.90;93.40;;;;;;5072733;28;20495;-70
2021/12/07 11:07:19;;;;;;;13.13;12.57;;;15.80;88.00;;;;;;5059439;28;20531;-70
2021/12/07 11:10:05;;;;;;;13.00;12.30;;;16.50;78.90;;;;;;5050799;28;20460;-70
2021/12/07 11:12:38;;;;;;;14.13;13.27;;;16.40;79.40;;;;;;5050834;28;20459;-70
2021/12/07 11:15:14;;;;;;;12.93;12.30;;;16.30;77.80;;;;;;5050829;28;20456;-71
2021/12/07 11:17:41;;;;;;;12.67;12.07;;;16.00;76.40;;;;;;5050362;28;20462;-71
2021/12/07 11:20:09;;;;;;;11.97;11.10;;;16.70;77.40;;;;;;5049330;28;20460;-71
2021/12/07 11:22:38;;;;;;;12.37;11.77;;;16.70;75.00;;;;;;5050119;28;20499;-72
2021/12/07 11:25:06;;;;;;;14.30;13.20;;;18.00;73.10;;;;;;5049360;28;20771;-72
2021/12/07 11:30:22;;;;;;;12.93;12.10;;;19.00;70.70;;;;;;5050329;28;20451;-72
2021/12/07 11:32:54;;;;;;;13.10;12.30;;;17.70;65.90;;;;;;5050340;28;20444;-72
2021/12/07 11:35:24;;;;;;;12.47;11.80;;;16.00;71.30;;;;;;5050270;28;20496;-71
2021/12/07 11:37:51;;;;;;;13.10;12.40;;;14.70;75.80;;;;;;5050271;28;20565;-72
2021/12/07 11:40:24;;;;;;;12.17;11.27;;;14.00;74.60;;;;;;5050128;28;20451;-72
2021/12/07 11:42:51;;;;;;;11.20;10.60;;;12.70;76.50;;;;;;5050005;28;20510;-71
2021/12/07 11:45:25;;;;;;;11.40;10.83;;;11.60;82.50;;;;;;5050046;28;20824;-72
2021/12/07 11:47:55;;;;;;;11.50;10.90;;;11.50;85.70;;;;;;5050286;28;20853;-72
2021/12/07 11:50:29;;;;;;;10.97;10.30;;;11.40;85.80;;;;;;5050093;28;20452;-72
2021/12/07 11:52:57;;;;;;;11.87;11.27;;;11.80;83.50;;;;;;5049918;28;20447;-72
2021/12/07 11:55:25;;;;;;;10.40;10.10;;;13.00;82.40;;;;;;5049874;28;20452;-71
2021/12/07 11:57:52;;;;;;;11.13;10.83;;;14.40;76.20;;;;;;5049868;28;20490;-71
2021/12/07 12:00:26;;;;;;;10.20;10.00;;;15.50;72.90;;;;;;5050046;28;20914;-71
2021/12/07 12:02:53;;;;;;;10.30;10.10;;;14.40;73.80;;;;;;5049961;28;20797;-71
2021/12/07 12:05:21;;;;;;;9.90;9.60;;;13.30;74.80;;;;;;5050129;28;20452;-72
2021/12/07 12:07:48;;;;;;;11.10;10.80;;;12.90;78.30;;;;;;5050066;28;20455;-72
2021/12/07 12:10:18;;;;;;;173.13;116.20;;;13.60;78.10;;;;;;5050006;28;20942;-73
2021/12/07 12:13:02;;;;;;;12.17;11.57;;;14.10;76.60;;;;;;5050060;28;20456;-72
2021/12/07 12:15:52;;;;;;;11.40;10.90;;;14.20;74.30;;;;;;5050272;28;20455;-73
2021/12/07 12:18:30;;;;;;;11.83;11.33;;;14.50;73.60;;;;;;5049855;28;20949;-73
2021/12/07 12:21:07;;;;;;;12.20;11.37;;;14.40;73.90;;;;;;5050167;28;20459;-72
2021/12/07 12:23:42;;;;;;;11.27;10.70;;;14.70;75.60;;;;;;5049617;28;20488;-72
2021/12/07 12:26:12;;;;;;;12.13;11.63;;;15.00;74.70;;;;;;5049991;28;20455;-72
2021/12/07 12:28:41;;;;;;;11.73;11.23;;;15.20;73.70;;;;;;5049291;28;20968;-73
2021/12/07 12:31:12;;;;;;;11.10;10.30;;;14.90;73.90;;;;;;5049795;28;20448;-72
2021/12/07 12:33:53;;;;;;;12.13;11.43;;;14.30;75.70;;;;;;5049778;28;20513;-73
2021/12/07 12:36:21;;;;;;;11.30;10.80;;;13.40;77.20;;;;;;5051280;28;20823;-72
2021/12/07 12:38:57;;;;;;;10.60;10.00;;;11.80;81.50;;;;;;5053700;28;20447;-72
2021/12/07 12:41:24;;;;;;;9.77;9.27;;;10.50;86.80;;;;;;5053745;28;20440;-72
2021/12/07 12:43:54;;;;;;;10.93;10.20;;;10.00;90.40;;;;;;5053505;28;20487;-71
2021/12/07 12:46:24;;;;;;;10.33;9.80;;;9.60;92.10;;;;;;5053898;28;20860;-71
2021/12/07 12:48:53;;;;;;;10.40;9.70;;;9.30;93.10;;;;;;5054348;28;20444;-71
2021/12/07 12:51:22;;;;;;;10.70;10.13;;;9.00;93.70;;;;;;5053937;28;20946;-72
2021/12/07 12:53:50;;;;;;;9.70;9.27;;;8.90;93.40;;;;;;5053760;28;20506;-72
2021/12/07 12:56:19;;;;;;;11.07;10.37;;;8.90;94.40;;;;;;5054096;28;20494;-70
2021/12/07 12:58:48;;;;;;;10.70;10.17;;;9.00;95.60;;;;;;5054166;28;20462;-71
2021/12/07 13:01:25;;;;;;;10.40;9.70;;;9.10;95.30;;;;;;5054039;28;20455;-71
2021/12/07 13:04:10;;;;;;;11.23;10.47;;;9.10;95.50;;;;;;5053606;28;20478;-71
2021/12/07 13:07:00;;;;;;;10.73;10.27;;;9.00;95.30;;;;;;5053501;28;20451;-71
2021/12/07 13:09:37;;;;;;;11.07;10.40;;;8.90;95.40;;;;;;5053683;28;20521;-70
2021/12/07 13:12:07;;;;;;;10.90;10.30;;;8.80;95.20;;;;;;5033741;28;20472;-70
2021/12/07 13:14:52;;;;;;;12.00;11.13;;;8.70;95.50;;;;;;5033719;28;20447;-70
2021/12/07 13:17:24;;;;;;;10.77;10.37;;;8.40;96.10;;;;;;5033729;28;20453;-70
2021/12/07 13:20:11;;;;;;;11.17;10.37;;;8.30;96.30;;;;;;5033457;28;21009;-71
2021/12/07 13:22:41;;;;;;;10.77;10.00;;;8.20;96.60;;;;;;5033305;28;20460;-71
2021/12/07 13:25:11;;;;;;;9.90;9.40;;;8.10;96.90;;;;;;5033466;28;20452;-71
2021/12/07 13:27:38;;;;;;;11.00;10.40;;;8.10;97.30;;;;;;5033171;28;20743;-70
2021/12/07 13:30:07;;;;;;;11.57;10.60;;;8.10;96.30;;;;;;5033110;28;20445;-72
2021/12/07 13:32:35;;;;;;;10.30;9.60;;;8.30;96.30;;;;;;5033089;28;20445;-72
2021/12/07 13:35:05;;;;;;;9.80;9.20;;;8.50;95.70;;;;;;5033108;28;20445;-71
2021/12/07 13:37:45;;;;;;;10.23;9.43;;;8.70;95.70;;;;;;5033375;28;20460;-71
2021/12/07 13:40:20;;;;;;;10.80;10.20;;;8.70;96.00;;;;;;5032206;28;20453;-71
2021/12/07 13:42:53;;;;;;;10.50;9.43;;;8.40;96.70;;;;;;5033034;28;20441;-71
2021/12/07 13:45:21;;;;;;;10.93;10.27;;;8.10;96.60;;;;;;5040352;28;20529;-71
2021/12/07 13:47:52;;;;;;;9.87;9.43;;;8.00;96.90;;;;;;5051931;28;20463;-70
2021/12/07 13:50:21;;;;;;;11.10;10.30;;;7.80;96.60;;;;;;5052711;28;20451;-71
2021/12/07 13:52:50;;;;;;;10.10;9.57;;;7.50;98.10;;;;;;5052762;28;20546;-70
2021/12/07 13:55:19;;;;;;;10.37;9.60;;;7.40;98.90;;;;;;5052725;28;21005;-71
2021/12/07 13:57:51;;;;;;;10.33;9.70;;;7.20;99.90;;;;;;5052856;28;20830;-71
2021/12/07 14:00:20;;;;;;;10.60;9.70;;;7.20;99.90;;;;;;5052740;28;20455;-71